Adaven, Nevada
Current Conditions -  °F | °C
As of 7:56 PM on Friday 24 Oct 2014 (Local Time) from KTPH Reporting Station
Clear Clear  
Wind Chill: 62°   Ceiling: Unl
Heat Index: 62°   Visibility: 10mi
Dew Point: 26°   Wind: 14mph
Humidity: 25%   Direction: 170°S
Pressure: 30.12"   Gusts: 22mph
Location:  38.13°N, 115.6°W
Report Text: KTPH 250256Z AUTO 17012G19KT 10SM CLR 17/M03 A3012 RMK AO2 SLP167 T01671033 53005
Loading
Personal Weather Stations






























Interactive Weather Map
Tropical Storm Tracking
New forecast layout! Learn more

10-Day Weather Forecast

Advertisements
Track Severe Weather on mobile